Time;durP1;ratioP1;P1;durP2;ratioP2;P2;SDS_P1;SDS_P2;PMS_P1;PMS_P2;Temp;Humidity;BMP_temperature;BMP_pressure;BME280_temperature;BME280_humidity;BME280_pressure;Samples;Min_cycle;Max_cycle;Signal;HPM_P1;HPM_P2
2022/07/28 00:00:13;;;;;;;9.40;2.00;;;;;;;14.15;69.72;101917.75;5063666;28;20028;-68
2022/07/28 00:02:38;;;;;;;6.65;2.05;;;;;;;14.10;69.92;101918.44;5064339;28;20021;-67
2022/07/28 00:05:05;;;;;;;5.70;1.45;;;;;;;14.11;69.77;101916.53;5063363;28;20070;-68
2022/07/28 00:07:30;;;;;;;5.18;2.63;;;;;;;14.10;69.77;101909.31;5065615;28;20356;-67
2022/07/28 00:09:55;;;;;;;5.60;1.80;;;;;;;14.07;70.05;101910.59;5065242;28;20024;-68
2022/07/28 00:12:21;;;;;;;5.82;1.85;;;;;;;14.04;70.84;101916.59;5064927;28;20119;-68
2022/07/28 00:14:46;;;;;;;7.35;2.15;;;;;;;14.01;70.77;101906.84;5064242;28;20028;-67
2022/07/28 00:17:12;;;;;;;3.70;1.75;;;;;;;14.02;70.66;101907.69;5061639;28;20526;-68
2022/07/28 00:19:37;;;;;;;7.30;2.10;;;;;;;13.98;70.61;101912.81;5063819;28;20085;-68
2022/07/28 00:22:03;;;;;;;7.07;1.95;;;;;;;13.93;71.04;101906.28;5064396;28;20070;-68
2022/07/28 00:24:30;;;;;;;6.22;2.00;;;;;;;13.86;71.71;101900.81;5062742;28;20027;-68
2022/07/28 00:26:56;;;;;;;8.27;2.05;;;;;;;13.84;71.83;101907.63;5062012;28;20431;-68
2022/07/28 00:29:21;;;;;;;6.55;1.90;;;;;;;13.79;71.75;101908.34;5063421;28;20019;-68
2022/07/28 00:31:46;;;;;;;6.10;2.25;;;;;;;13.73;72.02;101903.69;5064231;28;20112;-67
2022/07/28 00:34:12;;;;;;;5.80;2.05;;;;;;;13.75;71.77;101907.09;5064586;28;20395;-67
2022/07/28 00:36:37;;;;;;;7.53;2.20;;;;;;;13.66;71.81;101903.75;5064713;28;20021;-68
2022/07/28 00:39:03;;;;;;;6.63;1.92;;;;;;;13.68;72.11;101906.28;5064886;28;20839;-68
2022/07/28 00:41:28;;;;;;;5.72;2.03;;;;;;;13.65;72.22;101901.25;5062845;28;20027;-68
2022/07/28 00:43:54;;;;;;;5.40;1.83;;;;;;;13.59;72.20;101894.69;5062361;28;20502;-68
2022/07/28 00:46:21;;;;;;;4.13;1.88;;;;;;;13.54;72.74;101893.69;5063743;28;20032;-67
2022/07/28 00:48:49;;;;;;;6.13;1.90;;;;;;;13.53;73.28;101891.97;5063301;28;20025;-67
2022/07/28 00:51:16;;;;;;;6.93;2.03;;;;;;;13.55;73.62;101896.22;5061799;28;20024;-67
2022/07/28 00:53:42;;;;;;;8.93;2.10;;;;;;;13.50;73.65;101894.13;5063404;28;20028;-68
2022/07/28 00:56:08;;;;;;;7.97;2.40;;;;;;;13.55;73.19;101893.47;5063311;28;20032;-67
2022/07/28 00:58:35;;;;;;;5.43;2.38;;;;;;;13.44;73.58;101892.28;5063211;28;20395;-67
2022/07/28 01:01:00;;;;;;;7.28;2.22;;;;;;;13.47;73.51;101891.81;5063360;28;20430;-68
2022/07/28 01:03:26;;;;;;;5.03;2.25;;;;;;;13.37;73.97;101890.63;5064278;28;20074;-68
2022/07/28 01:05:57;;;;;;;6.40;2.17;;;;;;;13.28;74.34;101883.69;5054522;22;20124;-68
2022/07/28 01:08:36;;;;;;;4.75;2.13;;;;;;;13.23;74.38;101876.94;5043283;28;20037;-68
2022/07/28 01:11:10;;;;;;;6.03;2.40;;;;;;;13.20;74.11;101870.97;5043233;28;20107;-68
2022/07/28 01:14:09;;;;;;;5.80;2.08;;;;;;;13.19;74.39;101878.41;5041537;28;20196;-68
2022/07/28 01:16:42;;;;;;;5.82;2.35;;;;;;;13.17;74.31;101885.22;5043755;28;20111;-68
2022/07/28 01:19:39;;;;;;;6.30;2.45;;;;;;;13.09;74.60;101875.31;5042424;28;20051;-68
2022/07/28 01:22:08;;;;;;;7.55;2.10;;;;;;;13.11;74.20;101875.06;5002697;28;20064;-68
2022/07/28 01:24:46;;;;;;;8.02;2.60;;;;;;;13.10;74.18;101879.75;5040882;28;20070;-68
2022/07/28 01:27:31;;;;;;;11.10;2.65;;;;;;;13.06;74.38;101870.22;5046851;28;20067;-69
2022/07/28 01:30:04;;;;;;;8.02;3.33;;;;;;;12.96;75.05;101873.47;5046755;28;20472;-68
2022/07/28 01:32:41;;;;;;;5.75;2.60;;;;;;;12.95;75.22;101863.50;5047846;28;20104;-68
2022/07/28 01:35:16;;;;;;;8.30;2.53;;;;;;;12.90;75.74;101868.00;5046117;28;20052;-68
2022/07/28 01:37:44;;;;;;;8.48;2.58;;;;;;;12.89;75.59;101869.06;5028557;28;20135;-67
2022/07/28 01:40:12;;;;;;;7.07;2.60;;;;;;;12.81;75.52;101870.16;5027014;28;20029;-68
2022/07/28 01:42:45;;;;;;;5.35;2.20;;;;;;;12.79;76.16;101865.94;5063104;28;20040;-68
2022/07/28 01:45:12;;;;;;;6.00;2.60;;;;;;;12.78;76.04;101865.09;5047703;28;20319;-67
2022/07/28 01:47:38;;;;;;;8.17;2.50;;;;;;;12.79;76.33;101863.19;5046800;28;20068;-68
2022/07/28 01:50:08;;;;;;;6.68;2.40;;;;;;;12.75;76.21;101868.28;5044293;28;20105;-68
2022/07/28 01:52:36;;;;;;;5.60;2.45;;;;;;;12.71;76.39;101867.03;5046612;28;20033;-68
2022/07/28 01:55:03;;;;;;;9.23;2.45;;;;;;;12.71;76.78;101867.88;5046441;28;20032;-68
2022/07/28 01:57:31;;;;;;;8.40;3.13;;;;;;;12.68;76.87;101864.72;5045872;28;20021;-68
2022/07/28 01:59:59;;;;;;;8.45;2.90;;;;;;;12.64;76.75;101866.22;5046559;28;20075;-67
2022/07/28 02:02:26;;;;;;;7.53;2.63;;;;;;;12.62;77.84;101868.34;5045467;28;20037;-68
2022/07/28 02:04:54;;;;;;;9.02;2.75;;;;;;;12.63;76.31;101864.53;5045783;28;20045;-68
2022/07/28 02:07:21;;;;;;;9.15;2.70;;;;;;;12.65;76.31;101854.13;5046631;28;20056;-68
2022/07/28 02:09:46;;;;;;;6.55;2.60;;;;;;;12.65;76.04;101845.88;5047145;28;20104;-68
2022/07/28 02:12:17;;;;;;;7.13;2.75;;;;;;;12.61;76.79;101850.13;5024269;28;20234;-68
2022/07/28 02:14:47;;;;;;;8.43;2.70;;;;;;;12.62;76.49;101846.28;5039859;28;20605;-67
2022/07/28 02:17:17;;;;;;;6.28;2.85;;;;;;;12.60;76.49;101843.78;5045703;28;20032;-68
2022/07/28 02:19:44;;;;;;;9.85;2.60;;;;;;;12.58;76.95;101839.56;5046224;28;20442;-67
2022/07/28 02:22:11;;;;;;;9.60;2.87;;;;;;;12.58;75.99;101843.16;5045906;28;20040;-67
2022/07/28 02:24:37;;;;;;;7.03;2.75;;;;;;;12.58;75.93;101843.16;5045998;28;20291;-68
2022/07/28 02:27:23;;;;;;;7.53;2.92;;;;;;;12.64;75.86;101845.03;5045197;28;20371;-68
2022/07/28 02:29:56;;;;;;;8.77;2.75;;;;;;;12.64;75.38;101844.19;5033259;28;20059;-68
2022/07/28 02:32:31;;;;;;;7.53;2.53;;;;;;;12.59;75.09;101846.75;5046298;28;20032;-68
2022/07/28 02:35:01;;;;;;;8.43;3.00;;;;;;;12.61;74.66;101839.09;5046093;28;20105;-68
2022/07/28 02:37:33;;;;;;;6.68;2.58;;;;;;;12.54;75.27;101843.81;5045968;28;20446;-68
2022/07/28 02:40:01;;;;;;;9.20;2.63;;;;;;;12.53;74.81;101844.88;5035579;28;20024;-68
2022/07/28 02:42:31;;;;;;;8.57;2.70;;;;;;;12.58;73.98;101850.59;5026470;28;20033;-68
2022/07/28 02:45:03;;;;;;;6.20;2.47;;;;;;;12.53;74.87;101847.63;5045892;28;20033;-68
2022/07/28 02:47:33;;;;;;;7.13;2.45;;;;;;;12.51;74.94;101849.75;5045944;28;20490;-68
2022/07/28 02:50:01;;;;;;;8.35;2.55;;;;;;;12.47;74.89;101841.09;5045415;28;20590;-68
2022/07/28 02:52:27;;;;;;;5.32;2.50;;;;;;;12.48;74.36;101839.19;5052360;28;20101;-68
2022/07/28 02:54:55;;;;;;;5.50;2.50;;;;;;;12.41;74.61;101839.19;5059242;28;20056;-68
2022/07/28 02:57:22;;;;;;;6.80;2.85;;;;;;;12.38;74.61;101842.41;5044160;28;20052;-68
2022/07/28 02:59:49;;;;;;;5.93;2.58;;;;;;;12.37;74.50;101838.81;5046291;28;20060;-68
2022/07/28 03:02:18;;;;;;;8.13;2.70;;;;;;;12.38;74.62;101842.41;5044420;28;20029;-68
2022/07/28 03:04:57;;;;;;;6.10;2.60;;;;;;;12.38;74.78;101842.41;5045706;28;20037;-67
2022/07/28 03:07:25;;;;;;;6.28;2.40;;;;;;;12.50;73.15;101842.56;5043971;28;20037;-68
2022/07/28 03:09:51;;;;;;;8.35;3.10;;;;;;;12.39;74.62;101841.34;5044141;28;20486;-68
2022/07/28 03:12:16;;;;;;;9.70;2.85;;;;;;;12.36;74.66;101839.00;5044834;28;20040;-68
2022/07/28 03:14:41;;;;;;;5.88;2.30;;;;;;;12.36;74.60;101839.00;5045471;28;20029;-68
2022/07/28 03:17:07;;;;;;;5.65;2.40;;;;;;;12.38;74.40;101837.72;5044772;28;20029;-68
2022/07/28 03:19:32;;;;;;;4.85;2.50;;;;;;;12.38;74.43;101843.25;5044449;28;20328;-68
2022/07/28 03:21:58;;;;;;;7.97;2.65;;;;;;;12.40;73.80;101843.00;5044615;28;20090;-68
2022/07/28 03:24:27;;;;;;;7.22;2.20;;;;;;;12.39;74.25;101839.41;5044819;28;20029;-68
2022/07/28 03:27:03;;;;;;;7.65;2.75;;;;;;;12.43;73.82;101843.44;5045029;28;20495;-68
2022/07/28 03:29:31;;;;;;;7.40;2.40;;;;;;;12.36;74.40;101842.59;5042996;28;20542;-68
2022/07/28 03:31:58;;;;;;;6.85;2.40;;;;;;;12.35;74.19;101856.59;5044923;28;20029;-68
2022/07/28 03:34:24;;;;;;;4.88;2.30;;;;;;;12.31;74.64;101861.69;5044621;28;20029;-68
2022/07/28 03:36:56;;;;;;;7.28;2.75;;;;;;;12.30;74.94;101862.75;5044187;28;20474;-68
2022/07/28 03:39:23;;;;;;;9.40;3.25;;;;;;;12.26;74.87;101852.38;5044986;28;20068;-68
2022/07/28 03:41:50;;;;;;;6.57;2.50;;;;;;;12.19;75.96;101852.44;5043800;28;20098;-68
2022/07/28 03:44:16;;;;;;;5.63;2.50;;;;;;;12.17;75.36;101854.56;5044623;28;20024;-68
2022/07/28 03:46:45;;;;;;;8.57;2.70;;;;;;;12.13;76.25;101864.31;5045203;28;20167;-68
2022/07/28 03:49:10;;;;;;;7.47;2.80;;;;;;;12.14;76.31;101857.72;5044315;28;20074;-68
2022/07/28 03:51:36;;;;;;;8.48;2.92;;;;;;;12.17;75.95;101851.81;5041275;28;20025;-68
2022/07/28 03:54:01;;;;;;;6.43;2.65;;;;;;;12.10;76.04;101853.72;5043589;28;20040;-68
2022/07/28 03:56:26;;;;;;;7.47;2.75;;;;;;;12.10;75.95;101857.31;5043880;28;20434;-68
2022/07/28 03:58:52;;;;;;;7.72;2.92;;;;;;;12.05;76.47;101859.03;5043784;28;20110;-68
2022/07/28 04:01:17;;;;;;;7.22;3.15;;;;;;;12.01;77.04;101860.50;5044326;28;20029;-68
2022/07/28 04:03:43;;;;;;;6.30;2.83;;;;;;;12.12;75.98;101857.13;5044016;28;20612;-68
2022/07/28 04:06:08;;;;;;;8.57;2.90;;;;;;;11.95;76.87;101854.81;5042274;28;20064;-68
2022/07/28 04:08:34;;;;;;;7.10;3.15;;;;;;;12.00;76.52;101854.16;5043128;28;20033;-68
2022/07/28 04:10:59;;;;;;;9.68;3.08;;;;;;;11.94;76.76;101852.28;5044182;28;20025;-68
2022/07/28 04:13:24;;;;;;;11.07;3.20;;;;;;;11.97;76.49;101845.50;5043132;28;20036;-68
2022/07/28 04:15:50;;;;;;;6.53;3.00;;;;;;;12.04;76.35;101849.06;5044198;28;20032;-68
2022/07/28 04:18:15;;;;;;;8.95;2.88;;;;;;;11.88;77.57;101845.72;5044403;28;20021;-68
2022/07/28 04:20:40;;;;;;;6.68;2.70;;;;;;;11.92;77.25;101848.91;5043212;28;20032;-68
2022/07/28 04:23:06;;;;;;;8.23;3.00;;;;;;;11.89;77.51;101847.41;5043975;28;20431;-68
2022/07/28 04:25:31;;;;;;;6.80;2.83;;;;;;;11.93;77.12;101847.84;5044088;28;20257;-68
2022/07/28 04:27:56;;;;;;;7.43;2.80;;;;;;;11.87;77.73;101845.94;5042903;28;20085;-67
2022/07/28 04:30:24;;;;;;;7.22;3.00;;;;;;;11.92;77.41;101851.66;5042787;28;20029;-68
2022/07/28 04:32:50;;;;;;;7.10;2.97;;;;;;;11.93;77.36;101839.56;5043186;28;20025;-68
2022/07/28 04:35:17;;;;;;;7.82;3.55;;;;;;;11.93;77.37;101847.84;5044381;28;20609;-68
2022/07/28 04:37:43;;;;;;;7.57;2.83;;;;;;;11.92;77.14;101841.50;5043825;28;20375;-67
2022/07/28 04:40:11;;;;;;;8.13;3.08;;;;;;;11.89;78.02;101852.06;5042569;28;20124;-68
2022/07/28 04:42:37;;;;;;;11.65;3.35;;;;;;;11.94;77.51;101844.84;5041793;28;20117;-69
2022/07/28 04:45:04;;;;;;;7.88;3.30;;;;;;;11.89;78.01;101847.41;5041952;28;20540;-68
2022/07/28 04:47:30;;;;;;;9.32;2.85;;;;;;;11.93;78.34;101847.84;5043710;28;20450;-68
2022/07/28 04:49:55;;;;;;;7.18;2.97;;;;;;;12.03;77.33;101837.22;5042222;28;20033;-69
2022/07/28 04:52:21;;;;;;;9.55;3.00;;;;;;;12.06;77.45;101839.53;5042987;28;20433;-69
2022/07/28 04:54:47;;;;;;;10.57;3.25;;;;;;;11.98;78.22;101838.94;5044979;28;20021;-68
2022/07/28 04:57:12;;;;;;;7.80;3.45;;;;;;;12.00;77.74;101845.06;5042264;28;20060;-68
2022/07/28 04:59:38;;;;;;;11.32;3.47;;;;;;;12.00;78.27;101837.66;5042528;28;20124;-69
2022/07/28 05:02:03;;;;;;;11.02;3.42;;;;;;;12.05;78.10;101840.59;5048109;28;20155;-68
2022/07/28 05:04:28;;;;;;;8.68;3.25;;;;;;;12.10;77.57;101840.78;5045951;28;20387;-68
2022/07/28 05:06:54;;;;;;;10.48;3.13;;;;;;;12.07;77.83;101844.00;5046852;28;20021;-69
2022/07/28 05:09:20;;;;;;;9.25;2.90;;;;;;;12.07;78.00;101843.16;5058919;28;20036;-69
2022/07/28 05:11:46;;;;;;;8.25;3.35;;;;;;;12.07;79.15;101844.00;5047948;28;20035;-69
2022/07/28 05:14:11;;;;;;;8.57;3.40;;;;;;;12.25;77.86;101839.69;5047503;28;20035;-68
2022/07/28 05:16:36;;;;;;;10.25;3.40;;;;;;;12.20;77.67;101840.34;5046926;28;20040;-69
2022/07/28 05:19:02;;;;;;;8.50;3.05;;;;;;;12.32;78.05;101846.88;5048356;28;20044;-69
2022/07/28 05:21:27;;;;;;;11.13;3.40;;;;;;;12.24;78.52;101849.88;5047856;28;20393;-69
2022/07/28 05:23:53;;;;;;;8.13;3.35;;;;;;;12.32;78.19;101855.13;5047220;28;20497;-69
2022/07/28 05:26:18;;;;;;;9.95;3.53;;;;;;;12.34;78.74;101849.41;5045299;28;20029;-69
2022/07/28 05:28:43;;;;;;;10.00;3.83;;;;;;;12.37;78.55;101847.06;5045451;28;20032;-69
2022/07/28 05:31:09;;;;;;;6.60;3.30;;;;;;;12.56;77.77;101841.66;5044473;28;20041;-68
2022/07/28 05:33:35;;;;;;;9.23;3.50;;;;;;;12.62;77.41;101838.03;5047394;28;20033;-69
2022/07/28 05:36:00;;;;;;;8.68;4.13;;;;;;;12.64;77.51;101839.50;5047293;28;20025;-69
2022/07/28 05:38:27;;;;;;;9.45;3.53;;;;;;;12.69;77.01;101847.97;5047473;28;20441;-69
2022/07/28 05:40:52;;;;;;;7.95;3.38;;;;;;;12.79;76.78;101844.72;5047093;28;20026;-69
2022/07/28 05:43:18;;;;;;;9.30;3.58;;;;;;;12.82;77.30;101847.03;5047070;28;20033;-69
2022/07/28 05:45:44;;;;;;;7.65;3.42;;;;;;;12.95;76.50;101835.94;5045380;28;20667;-69
2022/07/28 05:48:09;;;;;;;8.95;3.30;;;;;;;13.14;75.19;101842.38;5047667;28;20871;-69
2022/07/28 05:50:35;;;;;;;10.55;4.13;;;;;;;13.20;75.98;101848.91;5047184;28;20384;-69
2022/07/28 05:53:00;;;;;;;11.65;3.55;;;;;;;13.28;76.05;101845.06;5046675;28;20029;-69
2022/07/28 05:55:25;;;;;;;9.32;3.60;;;;;;;13.40;75.22;101846.88;5045157;28;20029;-69
2022/07/28 05:57:52;;;;;;;10.75;3.45;;;;;;;13.52;74.69;101841.44;5044771;28;20030;-69
2022/07/28 06:00:21;;;;;;;12.52;3.58;;;;;;;13.69;73.12;101853.63;5048026;28;20033;-69
2022/07/28 06:02:48;;;;;;;8.27;3.15;;;;;;;13.69;73.52;101852.78;5047358;28;20024;-69
2022/07/28 06:05:16;;;;;;;9.48;3.22;;;;;;;13.88;72.86;101846.19;5044240;28;20106;-69
2022/07/28 06:07:42;;;;;;;9.60;2.95;;;;;;;13.93;71.59;101849.13;5045687;28;20494;-69
2022/07/28 06:10:09;;;;;;;10.73;3.40;;;;;;;14.07;71.42;101857.28;5047516;28;20067;-69
2022/07/28 06:12:46;;;;;;;11.13;3.00;;;;;;;14.27;71.12;101849.59;5044816;28;20044;-69
2022/07/28 06:15:13;;;;;;;9.73;3.10;;;;;;;14.43;70.71;101846.19;5027531;28;20954;-69
2022/07/28 06:17:39;;;;;;;8.80;2.90;;;;;;;14.43;69.59;101842.59;5039772;28;20021;-69
2022/07/28 06:20:05;;;;;;;9.70;3.13;;;;;;;14.67;68.50;101849.97;5027411;28;20021;-69
2022/07/28 06:22:40;;;;;;;6.00;2.58;;;;;;;14.75;68.74;101843.25;5046921;28;20032;-69
2022/07/28 06:25:06;;;;;;;12.90;3.58;;;;;;;14.63;69.27;101842.38;5046350;28;20041;-69
2022/07/28 06:27:31;;;;;;;9.38;3.17;;;;;;;14.68;67.93;101843.34;5045886;28;20029;-69
2022/07/28 06:29:56;;;;;;;9.48;2.72;;;;;;;14.72;68.29;101840.97;5046181;28;20032;-69
2022/07/28 06:32:21;;;;;;;13.85;3.05;;;;;;;14.74;68.53;101845.19;5045093;28;20498;-69
2022/07/28 06:34:47;;;;;;;9.02;3.08;;;;;;;14.77;69.10;101843.88;5047455;28;20040;-68
2022/07/28 06:37:12;;;;;;;9.60;2.88;;;;;;;14.82;67.95;101840.41;5045304;28;20479;-68
2022/07/28 06:39:37;;;;;;;8.65;2.70;;;;;;;14.92;67.39;101841.53;5029476;28;20021;-68
2022/07/28 06:42:03;;;;;;;10.95;2.70;;;;;;;14.88;67.74;101842.25;5025857;28;20116;-68
2022/07/28 06:44:28;;;;;;;8.02;2.60;;;;;;;14.92;67.44;101841.53;5030247;28;20033;-69
2022/07/28 06:46:53;;;;;;;7.05;2.33;;;;;;;14.91;67.45;101839.84;5046457;28;20028;-69
2022/07/28 06:49:18;;;;;;;9.10;3.03;;;;;;;15.00;66.84;101832.91;5047289;28;20021;-69
2022/07/28 06:51:44;;;;;;;8.88;2.50;;;;;;;15.05;66.80;101835.81;5044726;28;20041;-68
2022/07/28 06:54:09;;;;;;;7.22;2.30;;;;;;;15.10;65.87;101837.84;5044273;28;20090;-69
2022/07/28 06:56:34;;;;;;;10.93;2.72;;;;;;;15.11;66.43;101833.19;5042708;28;20188;-69
2022/07/28 06:59:00;;;;;;;6.45;2.38;;;;;;;15.14;66.69;101844.59;5043702;28;20025;-68
2022/07/28 07:01:25;;;;;;;6.13;2.30;;;;;;;15.26;66.68;101841.88;5041554;28;20115;-69
2022/07/28 07:03:50;;;;;;;8.90;2.80;;;;;;;15.50;66.24;101848.28;5045314;28;20070;-69
2022/07/28 07:06:15;;;;;;;8.85;2.53;;;;;;;15.43;65.73;101847.56;5044934;28;20052;-68
2022/07/28 07:08:41;;;;;;;7.55;2.50;;;;;;;15.49;65.33;101843.81;5045177;28;20036;-68
2022/07/28 07:11:06;;;;;;;8.88;2.55;;;;;;;15.58;64.88;101842.38;5045963;28;20057;-68
2022/07/28 07:13:31;;;;;;;9.93;2.65;;;;;;;15.62;64.61;101845.53;5045254;28;20056;-68
2022/07/28 07:15:57;;;;;;;8.68;2.33;;;;;;;15.71;64.22;101846.88;5043277;28;20150;-68
2022/07/28 07:18:22;;;;;;;5.22;2.08;;;;;;;15.70;66.13;101839.66;5045173;28;20374;-68
2022/07/28 07:20:47;;;;;;;6.30;2.30;;;;;;;15.95;65.75;101839.41;5036398;28;20021;-68
2022/07/28 07:23:13;;;;;;;8.43;2.47;;;;;;;16.09;64.70;101840.84;5025120;28;20105;-69
2022/07/28 07:25:39;;;;;;;9.38;2.40;;;;;;;16.11;64.29;101846.97;5025650;28;20041;-69
2022/07/28 07:28:04;;;;;;;9.15;2.20;;;;;;;16.19;64.75;101845.75;5024961;28;20022;-69
2022/07/28 07:30:29;;;;;;;6.60;2.00;;;;;;;16.30;63.22;101840.19;5045333;28;20033;-69
2022/07/28 07:32:54;;;;;;;7.65;2.00;;;;;;;16.43;62.86;101844.63;5045205;28;20023;-69
2022/07/28 07:35:20;;;;;;;10.88;2.60;;;;;;;16.61;63.79;101841.66;5043413;28;20044;-69
2022/07/28 07:37:45;;;;;;;6.55;1.90;;;;;;;16.81;61.28;101837.63;5044252;28;20471;-69
2022/07/28 07:40:10;;;;;;;8.35;1.92;;;;;;;16.93;62.04;101834.78;5044588;28;20036;-69
2022/07/28 07:42:36;;;;;;;2.97;1.50;;;;;;;16.95;60.83;101827.91;5049010;28;20580;-69
2022/07/28 07:45:01;;;;;;;8.15;2.05;;;;;;;16.94;60.74;101830.94;5041059;28;20037;-69
2022/07/28 07:47:27;;;;;;;5.50;1.90;;;;;;;17.15;60.93;101826.59;5043354;28;20025;-68
2022/07/28 07:49:52;;;;;;;8.40;2.08;;;;;;;17.32;60.47;101825.50;5043741;28;20533;-68
2022/07/28 07:52:17;;;;;;;11.55;2.17;;;;;;;17.40;58.95;101826.19;5043361;28;20123;-68
2022/07/28 07:54:44;;;;;;;10.35;2.00;;;;;;;17.33;59.16;101820.78;5045247;28;20032;-69
2022/07/28 07:57:09;;;;;;;5.07;1.95;;;;;;;17.27;58.92;101814.31;5044115;28;20027;-68
2022/07/28 07:59:34;;;;;;;6.65;2.00;;;;;;;17.28;60.24;101817.94;5043465;28;20021;-68
2022/07/28 08:02:00;;;;;;;5.80;1.90;;;;;;;17.28;60.56;101824.31;5044735;28;20017;-69
2022/07/28 08:04:26;;;;;;;6.53;1.88;;;;;;;17.31;60.18;101820.22;5042786;28;20013;-69
2022/07/28 08:06:51;;;;;;;6.50;1.90;;;;;;;17.26;58.51;101826.53;5043708;28;20098;-68
2022/07/28 08:09:18;;;;;;;9.25;2.90;;;;;;;17.05;59.90;101827.25;5044618;28;20025;-69
2022/07/28 08:11:43;;;;;;;11.65;2.00;;;;;;;17.11;58.98;101823.47;5043948;28;20025;-68
2022/07/28 08:14:09;;;;;;;8.77;2.20;;;;;;;17.08;60.30;101823.97;5044424;28;20029;-69
2022/07/28 08:16:35;;;;;;;6.88;2.17;;;;;;;17.29;58.34;101820.47;5043667;28;20549;-68
2022/07/28 08:19:00;;;;;;;4.40;1.70;;;;;;;17.28;57.93;101812.38;5042115;28;20029;-68
2022/07/28 08:21:27;;;;;;;7.70;1.95;;;;;;;17.17;58.33;101814.13;5041046;28;20029;-68
2022/07/28 08:23:54;;;;;;;7.53;1.95;;;;;;;17.26;58.44;101820.13;5026490;28;20036;-68
2022/07/28 08:26:20;;;;;;;6.97;1.70;;;;;;;17.28;58.36;101815.16;5033858;28;20075;-68
2022/07/28 08:28:46;;;;;;;4.25;1.60;;;;;;;17.29;57.54;101809.38;5043335;28;20086;-69
2022/07/28 08:31:11;;;;;;;6.05;1.52;;;;;;;17.40;58.13;101812.31;5043361;28;20751;-68
2022/07/28 08:33:36;;;;;;;5.45;1.45;;;;;;;17.47;57.64;101811.03;5042963;28;20031;-68
2022/07/28 08:36:02;;;;;;;4.83;1.30;;;;;;;17.53;55.86;101811.94;5042138;28;20024;-69
2022/07/28 08:38:27;;;;;;;6.30;1.50;;;;;;;17.62;55.63;101816.00;5042495;28;20310;-68
2022/07/28 08:40:55;;;;;;;7.82;1.70;;;;;;;17.70;56.32;101817.50;5042732;28;20071;-69
2022/07/28 08:43:38;;;;;;;5.00;1.65;;;;;;;17.87;57.14;101823.91;5043700;28;20794;-69
2022/07/28 08:46:05;;;;;;;6.00;1.75;;;;;;;18.00;55.68;101823.53;5043613;28;20087;-69
2022/07/28 08:48:34;;;;;;;7.82;1.65;;;;;;;18.12;55.61;101818.69;5040663;28;20482;-69
2022/07/28 08:51:02;;;;;;;6.03;1.52;;;;;;;18.25;56.58;101809.16;5043222;28;20033;-69
2022/07/28 08:53:33;;;;;;;6.13;1.40;;;;;;;18.37;54.61;101809.84;5042731;28;20044;-69
2022/07/28 08:56:02;;;;;;;6.75;1.35;;;;;;;18.37;54.13;101814.56;5038064;28;20025;-69
2022/07/28 08:58:33;;;;;;;7.43;1.40;;;;;;;18.39;54.75;101802.06;5038238;28;20033;-69
2022/07/28 09:00:59;;;;;;;6.97;1.77;;;;;;;18.53;55.25;101813.63;5042535;28;20033;-70
2022/07/28 09:03:26;;;;;;;5.93;2.05;;;;;;;18.59;54.96;101803.41;5044604;28;20025;-69
2022/07/28 09:05:52;;;;;;;6.90;1.50;;;;;;;18.75;55.45;101804.44;5035505;28;20518;-69
2022/07/28 09:08:20;;;;;;;5.43;1.50;;;;;;;18.78;53.37;101804.78;5026612;28;20291;-69
2022/07/28 09:10:46;;;;;;;4.15;1.40;;;;;;;18.99;52.26;101796.63;5031432;28;20514;-69
2022/07/28 09:13:13;;;;;;;3.88;1.50;;;;;;;19.00;50.52;101796.34;5031857;28;20032;-68
2022/07/28 09:15:38;;;;;;;4.13;1.20;;;;;;;18.88;52.71;101804.03;5025525;28;20028;-68
2022/07/28 09:18:03;;;;;;;3.30;1.60;;;;;;;18.98;52.74;101797.72;5031926;28;20032;-69
2022/07/28 09:20:29;;;;;;;5.55;1.73;;;;;;;19.04;50.65;101799.44;5029817;28;20037;-69
2022/07/28 09:22:56;;;;;;;3.70;1.40;;;;;;;19.16;52.71;101795.41;5037089;28;20013;-69
2022/07/28 09:25:21;;;;;;;6.28;1.92;;;;;;;19.30;52.70;101798.56;5036924;28;20133;-68
2022/07/28 09:27:47;;;;;;;4.30;1.52;;;;;;;19.40;51.59;101795.84;5030747;28;20379;-68
2022/07/28 09:30:15;;;;;;;6.10;1.90;;;;;;;20.02;49.77;101787.91;5029132;28;20021;-68
2022/07/28 09:32:40;;;;;;;;;;;;;;;20.92;50.60;101772.59;5034174;28;20103;-68
2022/07/28 09:35:26;;;;;;;3.97;1.33;;;;;;;21.50;47.32;101777.94;5031695;28;19956;-69
2022/07/28 09:37:58;;;;;;;4.32;1.27;;;;;;;21.16;46.51;101772.06;5027783;28;20304;-69
2022/07/28 09:40:24;;;;;;;4.75;1.30;;;;;;;21.72;45.83;101772.88;5027406;28;20040;-68
2022/07/28 09:42:49;;;;;;;4.70;1.08;;;;;;;22.16;45.88;101774.16;5037339;28;20029;-69
2022/07/28 09:45:14;;;;;;;7.20;1.50;;;;;;;23.73;41.72;101765.78;5042923;28;20071;-68
2022/07/28 09:47:40;;;;;;;6.40;1.30;;;;;;;24.58;39.15;101760.22;5042804;28;20021;-69
2022/07/28 09:50:06;;;;;;;6.60;1.70;;;;;;;25.79;37.64;101758.47;5028940;28;20061;-69
2022/07/28 09:52:37;;;;;;;8.82;1.50;;;;;;;25.94;36.15;101750.88;5033550;28;20040;-68
2022/07/28 09:55:07;;;;;;;3.97;1.05;;;;;;;25.88;34.66;101744.53;5037678;28;20544;-68
2022/07/28 09:57:36;;;;;;;4.93;1.30;;;;;;;26.00;34.69;101744.00;5035920;28;20037;-68
2022/07/28 10:00:05;;;;;;;2.78;1.20;;;;;;;25.65;34.73;101737.94;5029545;28;20164;-68
2022/07/28 10:02:31;;;;;;;7.45;1.42;;;;;;;26.58;34.90;101737.69;5032473;28;20112;-68
2022/07/28 10:05:00;;;;;;;4.10;1.10;;;;;;;27.82;31.58;101745.53;5029166;28;20914;-68
2022/07/28 10:07:28;;;;;;;6.20;1.30;;;;;;;27.38;31.56;101750.09;5028470;28;20029;-68
2022/07/28 10:10:05;;;;;;;;;;;;;;;28.04;31.96;101751.09;5028915;28;20499;-69
2022/07/28 10:12:33;;;;;;;4.93;1.25;;;;;;;27.88;32.33;101756.38;5032145;28;19931;-68
2022/07/28 10:17:55;;;;;;;;;;;;;;;30.10;29.37;101743.94;5037919;28;20082;-69
2022/07/28 10:20:21;;;;;;;5.38;1.17;;;;;;;30.26;27.73;101742.19;5047165;28;19909;-68
2022/07/28 10:22:48;;;;;;;4.50;1.33;;;;;;;30.91;27.75;101742.75;5046024;28;20021;-69
2022/07/28 10:25:15;;;;;;;4.25;1.48;;;;;;;31.89;26.79;101740.22;5045473;28;20036;-69
2022/07/28 10:27:41;;;;;;;4.40;1.00;;;;;;;32.31;25.74;101737.13;5045333;28;20040;-69
2022/07/28 10:30:07;;;;;;;5.82;1.08;;;;;;;32.22;26.71;101737.22;5046689;28;20299;-69
2022/07/28 10:32:43;;;;;;;4.35;1.10;;;;;;;32.63;25.48;101743.81;5044026;28;20039;-69
2022/07/28 10:35:16;;;;;;;4.03;1.00;;;;;;;32.51;25.93;101742.66;5041427;28;21712;-69
2022/07/28 10:37:51;;;;;;;4.68;1.20;;;;;;;31.26;27.43;101743.25;5034553;28;20111;-69
2022/07/28 10:40:19;;;;;;;4.15;0.90;;;;;;;30.84;26.93;101726.28;5029278;28;20067;-69
2022/07/28 10:42:45;;;;;;;6.35;1.10;;;;;;;31.14;27.75;101723.34;5040007;28;20094;-69
2022/07/28 10:45:11;;;;;;;2.03;1.00;;;;;;;29.84;26.77;101725.09;5036123;28;20495;-68
2022/07/28 10:47:36;;;;;;;5.05;1.00;;;;;;;29.12;28.52;101729.63;5037312;28;20021;-68
2022/07/28 10:50:03;;;;;;;5.50;1.27;;;;;;;29.26;28.11;101720.13;5044830;28;20037;-68
2022/07/28 10:52:29;;;;;;;5.20;1.20;;;;;;;29.37;28.14;101716.56;5037121;28;20423;-68
2022/07/28 10:55:14;;;;;;;4.95;1.45;;;;;;;29.94;28.94;101727.53;5044237;28;20677;-68
2022/07/28 10:58:00;;;;;;;4.68;1.23;;;;;;;29.28;29.16;101720.59;5042697;28;20063;-68
2022/07/28 11:00:26;;;;;;;3.72;1.10;;;;;;;28.65;30.31;101715.31;5045548;28;20115;-68
2022/07/28 11:03:02;;;;;;;3.08;1.00;;;;;;;27.31;30.53;101716.69;5043999;28;20556;-68
2022/07/28 11:05:30;;;;;;;6.72;1.55;;;;;;;26.20;33.62;101721.03;5045254;28;20095;-68
2022/07/28 11:07:59;;;;;;;6.15;1.33;;;;;;;25.13;35.64;101723.13;5045520;28;20388;-68
2022/07/28 11:10:26;;;;;;;4.60;1.35;;;;;;;25.07;37.20;101716.75;5045737;28;20025;-68
2022/07/28 11:12:53;;;;;;;6.35;1.20;;;;;;;25.14;35.43;101715.50;5044710;28;20037;-68
2022/07/28 11:15:26;;;;;;;3.33;1.20;;;;;;;24.78;37.41;101711.28;5045920;28;20021;-68
2022/07/28 11:17:58;;;;;;;4.80;1.27;;;;;;;24.67;35.88;101715.41;5044277;28;20608;-68
2022/07/28 11:20:49;;;;;;;5.85;1.30;;;;;;;24.70;37.62;101700.78;5027630;28;20052;-68
2022/07/28 11:23:52;;;;;;;5.97;1.42;;;;;;;24.80;35.65;101700.59;5040629;28;20025;-68
2022/07/28 11:26:23;;;;;;;4.82;1.27;;;;;;;24.10;36.06;101702.47;5035123;28;20535;-68
2022/07/28 11:29:04;;;;;;;7.57;1.35;;;;;;;24.14;36.55;101695.13;5045003;28;20080;-68